Time;durP1;ratioP1;P1;durP2;ratioP2;P2;SDS_P1;SDS_P2;PMS_P1;PMS_P2;Temp;Humidity;BMP_temperature;BMP_pressure;BME280_temperature;BME280_humidity;BME280_pressure;Samples;Min_cycle;Max_cycle;Signal;HPM_P1;HPM_P2
2023/10/22 00:00:25;;;;;;;2.22;0.80;;;14.70;99.90;;;;;;5035784;28;20196;-78
2023/10/22 00:02:53;;;;;;;3.15;1.08;;;14.70;99.90;;;;;;5033582;28;20218;-78
2023/10/22 00:05:22;;;;;;;3.08;1.00;;;14.80;99.90;;;;;;5031904;28;20213;-79
2023/10/22 00:07:50;;;;;;;2.15;0.60;;;14.80;99.90;;;;;;5034759;28;20198;-79
2023/10/22 00:10:17;;;;;;;1.85;0.80;;;14.70;99.90;;;;;;5052130;28;20198;-79
2023/10/22 00:12:44;;;;;;;1.83;0.77;;;14.70;99.90;;;;;;5054700;28;20229;-78
2023/10/22 00:15:12;;;;;;;4.00;0.73;;;14.70;99.90;;;;;;5031266;28;20214;-79
2023/10/22 00:17:41;;;;;;;2.33;0.75;;;14.70;99.90;;;;;;5033535;28;20202;-79
2023/10/22 00:20:10;;;;;;;2.75;1.02;;;14.70;99.90;;;;;;5036753;28;20668;-79
2023/10/22 00:22:39;;;;;;;1.48;0.70;;;14.70;99.90;;;;;;5052651;28;20218;-79
2023/10/22 00:25:07;;;;;;;4.40;0.98;;;14.70;99.90;;;;;;5036810;28;20206;-79
2023/10/22 00:27:35;;;;;;;2.17;0.80;;;14.70;99.90;;;;;;5036644;28;20213;-79
2023/10/22 00:30:02;;;;;;;3.42;0.65;;;14.70;99.90;;;;;;5036012;28;20198;-79
2023/10/22 00:32:30;;;;;;;2.20;0.65;;;14.70;99.90;;;;;;5031248;28;20214;-79
2023/10/22 00:34:59;;;;;;;1.42;1.10;;;14.70;99.90;;;;;;5033280;28;20194;-79
2023/10/22 00:37:27;;;;;;;3.03;0.95;;;14.70;99.90;;;;;;5031037;28;20190;-79
2023/10/22 00:39:57;;;;;;;3.45;0.88;;;14.70;99.90;;;;;;5065011;28;20221;-79
2023/10/22 00:42:24;;;;;;;6.30;0.88;;;14.70;99.90;;;;;;5060469;28;20199;-79
2023/10/22 00:44:52;;;;;;;3.47;0.90;;;14.70;99.90;;;;;;5035075;28;20206;-79
2023/10/22 00:47:20;;;;;;;2.65;0.57;;;14.70;99.90;;;;;;5036763;28;20203;-79
2023/10/22 00:49:47;;;;;;;1.50;0.88;;;14.70;99.90;;;;;;5032742;28;20198;-79
2023/10/22 00:52:16;;;;;;;1.42;0.65;;;14.60;99.90;;;;;;5057257;28;20214;-79
2023/10/22 00:54:44;;;;;;;4.15;0.82;;;14.60;99.90;;;;;;5029447;28;20198;-78
2023/10/22 00:57:13;;;;;;;3.58;0.95;;;14.60;99.90;;;;;;5034920;28;20213;-78
2023/10/22 00:59:41;;;;;;;3.95;1.00;;;14.60;99.90;;;;;;5030428;28;20202;-79
2023/10/22 01:02:09;;;;;;;2.08;0.95;;;14.50;99.90;;;;;;5030279;28;20206;-79
2023/10/22 01:04:37;;;;;;;2.38;0.80;;;14.50;99.90;;;;;;5035284;28;20230;-79
2023/10/22 01:07:06;;;;;;;2.92;0.73;;;14.50;99.90;;;;;;5035053;28;20210;-79
2023/10/22 01:09:35;;;;;;;2.00;0.80;;;14.50;99.90;;;;;;5033927;28;20700;-79
2023/10/22 01:12:04;;;;;;;3.28;0.70;;;14.60;99.90;;;;;;5043130;28;20676;-79
2023/10/22 01:14:33;;;;;;;2.83;0.93;;;14.60;99.90;;;;;;5029600;28;20230;-79
2023/10/22 01:17:02;;;;;;;1.52;0.70;;;14.60;99.90;;;;;;5051106;28;20187;-79
2023/10/22 01:19:29;;;;;;;2.55;0.95;;;14.60;99.90;;;;;;5034810;28;20213;-79
2023/10/22 01:21:58;;;;;;;3.40;0.90;;;14.60;99.90;;;;;;5047465;28;20195;-78
2023/10/22 01:24:31;;;;;;;3.45;0.52;;;14.50;99.90;;;;;;5033847;28;20228;-79
2023/10/22 01:26:59;;;;;;;2.03;0.82;;;14.60;99.90;;;;;;5029714;28;20656;-79
2023/10/22 01:29:26;;;;;;;1.92;0.70;;;14.50;99.90;;;;;;5031909;28;20671;-78
2023/10/22 01:31:54;;;;;;;2.70;0.90;;;14.60;99.90;;;;;;5027584;28;20669;-79
2023/10/22 01:34:21;;;;;;;2.28;0.88;;;14.50;99.90;;;;;;5057307;28;20226;-79
2023/10/22 01:36:49;;;;;;;2.67;0.65;;;14.50;99.90;;;;;;5035275;28;20209;-79
2023/10/22 01:39:17;;;;;;;2.58;0.80;;;14.50;99.90;;;;;;5024165;28;20683;-78
2023/10/22 01:41:46;;;;;;;2.05;0.85;;;14.50;99.90;;;;;;5029313;28;20210;-79
2023/10/22 01:44:13;;;;;;;1.20;0.50;;;14.50;99.90;;;;;;5036363;28;20226;-79
2023/10/22 01:46:41;;;;;;;1.80;0.70;;;14.50;99.90;;;;;;5026043;28;20202;-79
2023/10/22 01:49:09;;;;;;;5.18;0.85;;;14.50;99.90;;;;;;5032218;28;20198;-79
2023/10/22 01:51:36;;;;;;;2.10;0.57;;;14.50;99.90;;;;;;5035031;28;20198;-79
2023/10/22 01:54:05;;;;;;;2.90;1.02;;;14.50;99.90;;;;;;5062471;28;20578;-79
2023/10/22 01:56:32;;;;;;;3.70;0.85;;;14.50;99.90;;;;;;5033336;28;20557;-79
2023/10/22 01:59:01;;;;;;;1.55;0.60;;;14.50;99.90;;;;;;5034389;28;20213;-79
2023/10/22 02:01:28;;;;;;;3.53;1.00;;;14.50;99.90;;;;;;5048616;28;20198;-79
2023/10/22 02:03:56;;;;;;;4.10;0.70;;;14.50;99.90;;;;;;5040069;28;20221;-78
2023/10/22 02:06:24;;;;;;;2.17;0.77;;;14.40;99.90;;;;;;5039507;28;20209;-79
2023/10/22 02:08:51;;;;;;;2.40;0.60;;;14.40;99.90;;;;;;5034123;28;20209;-79
2023/10/22 02:11:22;;;;;;;2.65;0.80;;;14.40;99.90;;;;;;5038524;28;20198;-79
2023/10/22 02:13:49;;;;;;;2.00;0.80;;;14.40;99.90;;;;;;5038530;28;20226;-79
2023/10/22 02:16:18;;;;;;;3.03;0.70;;;14.40;99.90;;;;;;5040097;28;20206;-79
2023/10/22 02:18:46;;;;;;;2.35;1.00;;;14.40;99.90;;;;;;5038737;28;20206;-79
2023/10/22 02:21:13;;;;;;;3.50;0.75;;;14.30;99.90;;;;;;5041414;28;20554;-79
2023/10/22 02:23:41;;;;;;;3.28;0.80;;;14.30;99.90;;;;;;5037551;28;20233;-79
2023/10/22 02:26:09;;;;;;;1.42;0.60;;;14.30;99.90;;;;;;5025800;28;20206;-79
2023/10/22 02:28:37;;;;;;;2.80;0.85;;;14.30;99.90;;;;;;5029584;28;20195;-79
2023/10/22 02:31:05;;;;;;;2.45;0.80;;;14.30;99.90;;;;;;5070032;28;20224;-79
2023/10/22 02:33:35;;;;;;;3.15;0.85;;;14.30;99.90;;;;;;5040018;28;20230;-79
2023/10/22 02:36:04;;;;;;;1.65;0.60;;;14.30;99.90;;;;;;5042080;28;20202;-79
2023/10/22 02:38:31;;;;;;;1.63;0.40;;;14.30;99.90;;;;;;5043231;28;20210;-79
2023/10/22 02:40:58;;;;;;;2.33;0.90;;;14.30;99.90;;;;;;5045474;28;20202;-79
2023/10/22 02:43:26;;;;;;;2.58;0.40;;;14.20;99.90;;;;;;5037368;28;20713;-79
2023/10/22 02:45:56;;;;;;;3.17;0.57;;;14.20;99.90;;;;;;5040660;28;20203;-79
2023/10/22 02:48:24;;;;;;;2.63;0.50;;;14.20;99.90;;;;;;5036313;28;20206;-79
2023/10/22 02:50:53;;;;;;;1.33;0.52;;;14.20;99.90;;;;;;5042459;28;20203;-79
2023/10/22 02:53:20;;;;;;;1.65;0.63;;;14.20;99.90;;;;;;5068127;28;20222;-79
2023/10/22 02:55:48;;;;;;;0.95;0.52;;;14.10;99.90;;;;;;5038142;28;20203;-79
2023/10/22 02:58:15;;;;;;;1.08;0.43;;;14.10;99.90;;;;;;5041199;28;20206;-79
2023/10/22 03:00:43;;;;;;;1.65;0.50;;;14.00;99.90;;;;;;5039442;28;20206;-79
2023/10/22 03:03:10;;;;;;;2.35;0.80;;;14.00;99.90;;;;;;5036929;28;20218;-79
2023/10/22 03:05:38;;;;;;;2.60;0.70;;;14.00;99.90;;;;;;5045254;28;20201;-79
2023/10/22 03:08:06;;;;;;;2.35;0.55;;;14.00;99.90;;;;;;5044802;28;20202;-79
2023/10/22 03:10:37;;;;;;;1.13;0.50;;;13.90;99.90;;;;;;5038906;28;20210;-79
2023/10/22 03:13:06;;;;;;;1.20;0.47;;;13.90;99.90;;;;;;5040588;28;20234;-79
2023/10/22 03:15:34;;;;;;;2.38;0.47;;;13.90;99.90;;;;;;5037589;28;20222;-79
2023/10/22 03:18:01;;;;;;;1.58;0.60;;;13.90;99.90;;;;;;5040119;28;20550;-79
2023/10/22 03:20:32;;;;;;;2.90;0.85;;;13.90;99.90;;;;;;5041326;28;20209;-79
2023/10/22 03:23:01;;;;;;;0.50;0.40;;;13.90;99.90;;;;;;5048323;28;20711;-79
2023/10/22 03:25:30;;;;;;;2.20;0.52;;;13.90;99.90;;;;;;5047208;28;20202;-79
2023/10/22 03:27:57;;;;;;;1.65;0.40;;;13.80;99.90;;;;;;5043397;28;20202;-79
2023/10/22 03:30:25;;;;;;;2.35;0.70;;;13.80;99.90;;;;;;5045958;28;20206;-79
2023/10/22 03:32:55;;;;;;;2.28;0.50;;;13.80;99.90;;;;;;5041418;28;20233;-79
2023/10/22 03:35:22;;;;;;;3.17;0.63;;;13.80;99.90;;;;;;5040837;28;20226;-79
2023/10/22 03:37:50;;;;;;;1.40;0.30;;;13.80;99.90;;;;;;5033884;28;20206;-79
2023/10/22 03:40:19;;;;;;;1.05;0.57;;;13.80;99.90;;;;;;5053552;28;20672;-79
2023/10/22 03:42:48;;;;;;;1.95;0.40;;;13.80;99.90;;;;;;5064147;28;20241;-79
2023/10/22 03:45:16;;;;;;;1.67;0.50;;;13.80;99.90;;;;;;5053851;28;20194;-79
2023/10/22 03:47:43;;;;;;;1.38;0.57;;;13.70;99.90;;;;;;5059764;28;20201;-79
2023/10/22 03:50:11;;;;;;;2.05;0.70;;;13.70;99.90;;;;;;5037158;28;20207;-79
2023/10/22 03:52:38;;;;;;;1.70;0.90;;;13.70;99.90;;;;;;5035664;28;20218;-79
2023/10/22 03:55:07;;;;;;;2.20;0.70;;;13.70;99.90;;;;;;5034528;28;20218;-79
2023/10/22 03:57:34;;;;;;;0.60;0.40;;;13.60;99.90;;;;;;5031130;28;20268;-79
2023/10/22 04:00:06;;;;;;;3.00;0.50;;;13.60;99.90;;;;;;5036392;28;20211;-79
2023/10/22 04:02:38;;;;;;;1.45;0.88;;;13.60;99.90;;;;;;5056291;28;20218;-79
2023/10/22 04:05:08;;;;;;;1.95;0.40;;;13.50;99.90;;;;;;5033309;28;20554;-78
2023/10/22 04:07:35;;;;;;;1.70;0.50;;;13.50;99.90;;;;;;5029972;28;20202;-78
2023/10/22 04:10:09;;;;;;;1.42;0.47;;;13.50;99.90;;;;;;5031016;28;20203;-78
2023/10/22 04:12:36;;;;;;;1.35;0.50;;;13.50;99.90;;;;;;5051732;28;20221;-78
2023/10/22 04:15:07;;;;;;;1.77;0.70;;;13.50;99.90;;;;;;5061777;28;20215;-78
2023/10/22 04:17:34;;;;;;;1.73;0.50;;;13.40;99.90;;;;;;5035279;28;20209;-79
2023/10/22 04:20:02;;;;;;;3.40;0.70;;;13.50;99.90;;;;;;5037216;28;20221;-79
2023/10/22 04:22:31;;;;;;;1.88;0.60;;;13.40;99.90;;;;;;5030326;28;20205;-79
2023/10/22 04:24:59;;;;;;;1.50;0.32;;;13.40;99.90;;;;;;5041848;28;20205;-79
2023/10/22 04:27:26;;;;;;;2.45;0.50;;;13.40;99.90;;;;;;5029335;28;20201;-78
2023/10/22 04:29:54;;;;;;;1.40;0.90;;;13.40;99.90;;;;;;5033027;28;20206;-79
2023/10/22 04:32:24;;;;;;;0.85;0.75;;;13.50;99.90;;;;;;5037209;28;20207;-79
2023/10/22 04:34:51;;;;;;;1.65;0.60;;;13.40;99.90;;;;;;5033819;28;20218;-78
2023/10/22 04:37:20;;;;;;;1.08;0.47;;;13.40;99.90;;;;;;5029197;28;20214;-79
2023/10/22 04:39:47;;;;;;;2.67;0.98;;;13.50;99.90;;;;;;5028702;28;20668;-78
2023/10/22 04:42:14;;;;;;;0.82;0.52;;;13.50;99.90;;;;;;5067645;28;20206;-79
2023/10/22 04:44:42;;;;;;;0.70;0.52;;;13.50;99.90;;;;;;5038173;28;20202;-79
2023/10/22 04:47:10;;;;;;;0.95;0.57;;;13.50;99.90;;;;;;5023559;23;20217;-81
2023/10/22 04:49:38;;;;;;;1.08;0.32;;;13.40;99.90;;;;;;4969533;28;20204;-81
2023/10/22 04:52:10;;;;;;;0.93;0.30;;;13.50;99.90;;;;;;4983322;28;20209;-81
2023/10/22 04:54:37;;;;;;;3.20;0.70;;;13.50;99.90;;;;;;4986236;28;20208;-80
2023/10/22 04:57:05;;;;;;;3.28;0.45;;;13.50;99.90;;;;;;4971244;28;20225;-81
2023/10/22 04:59:32;;;;;;;1.35;0.60;;;13.50;99.90;;;;;;4993973;28;20216;-80
2023/10/22 05:02:00;;;;;;;2.45;0.40;;;13.50;99.90;;;;;;4973136;28;20205;-80
2023/10/22 05:04:28;;;;;;;0.88;0.40;;;13.50;99.90;;;;;;4985974;28;20201;-80
2023/10/22 05:06:58;;;;;;;0.40;0.30;;;13.50;99.90;;;;;;4981719;28;20570;-81
2023/10/22 05:09:25;;;;;;;0.45;0.35;;;13.50;99.90;;;;;;4978509;28;20201;-81
2023/10/22 05:11:52;;;;;;;1.20;0.50;;;13.50;99.90;;;;;;4968343;28;20208;-81
2023/10/22 05:14:20;;;;;;;1.55;0.30;;;13.50;99.90;;;;;;4970720;28;20219;-81
2023/10/22 05:16:47;;;;;;;0.60;0.30;;;13.50;99.90;;;;;;4974364;28;20216;-80
2023/10/22 05:19:15;;;;;;;1.15;0.50;;;13.50;99.90;;;;;;4985661;28;20688;-80
2023/10/22 05:21:42;;;;;;;1.60;0.50;;;13.60;99.90;;;;;;4971981;28;20208;-81
2023/10/22 05:24:11;;;;;;;0.52;0.38;;;13.60;99.90;;;;;;4985373;28;20219;-80
2023/10/22 05:26:39;;;;;;;0.98;0.35;;;13.60;99.90;;;;;;4968879;28;20220;-81
2023/10/22 05:29:07;;;;;;;1.42;0.40;;;13.60;99.90;;;;;;4985612;28;20201;-81
2023/10/22 05:31:34;;;;;;;1.50;0.65;;;13.60;99.90;;;;;;4986807;28;20201;-81
2023/10/22 05:34:02;;;;;;;1.33;0.70;;;13.60;99.90;;;;;;4976923;28;20212;-81
2023/10/22 05:36:30;;;;;;;1.73;0.50;;;13.60;99.90;;;;;;4981398;28;20233;-81
2023/10/22 05:38:57;;;;;;;0.98;0.60;;;13.60;99.90;;;;;;4968625;28;20211;-81
2023/10/22 05:41:27;;;;;;;1.08;0.50;;;13.60;99.90;;;;;;4986510;28;20205;-81
2023/10/22 05:43:58;;;;;;;0.70;0.40;;;13.60;99.90;;;;;;4964947;28;20204;-81
2023/10/22 05:46:26;;;;;;;1.48;0.65;;;13.60;99.90;;;;;;4975599;28;20736;-81
2023/10/22 05:48:56;;;;;;;0.50;0.30;;;13.60;99.90;;;;;;4982366;28;20196;-78
2023/10/22 05:51:24;;;;;;;1.20;0.35;;;13.60;99.90;;;;;;4965973;28;20677;-80
2023/10/22 05:54:02;;;;;;;1.40;0.45;;;13.50;99.90;;;;;;4970067;28;20208;-79
2023/10/22 05:56:34;;;;;;;1.02;0.35;;;13.50;99.90;;;;;;4971462;28;20249;-78
2023/10/22 05:59:08;;;;;;;1.67;0.40;;;13.50;99.90;;;;;;4966457;28;20193;-80
2023/10/22 06:01:38;;;;;;;0.70;0.50;;;13.50;99.90;;;;;;4980562;28;20189;-79
2023/10/22 06:04:06;;;;;;;1.23;0.50;;;13.50;99.90;;;;;;4972699;28;20200;-81
2023/10/22 06:06:34;;;;;;;1.92;0.55;;;13.50;99.90;;;;;;4962648;28;20216;-81
2023/10/22 06:09:01;;;;;;;1.25;0.40;;;13.50;99.90;;;;;;4989718;28;20212;-81
2023/10/22 06:11:30;;;;;;;1.58;0.50;;;13.40;99.90;;;;;;4968660;28;20209;-81
2023/10/22 06:13:59;;;;;;;1.38;0.40;;;13.50;99.90;;;;;;4970470;28;20201;-79
2023/10/22 06:16:26;;;;;;;1.85;0.70;;;13.50;99.90;;;;;;4973528;28;20227;-79
2023/10/22 06:18:54;;;;;;;4.20;2.85;;;13.50;99.90;;;;;;4960908;28;20205;-79
2023/10/22 06:21:22;;;;;;;7.07;4.60;;;13.50;99.90;;;;;;4990868;28;20670;-79
2023/10/22 06:23:50;;;;;;;3.33;2.20;;;13.50;99.90;;;;;;5003910;28;20201;-78
2023/10/22 06:26:20;;;;;;;2.47;1.27;;;13.40;99.90;;;;;;4993502;28;20207;-79
2023/10/22 06:28:48;;;;;;;2.05;0.75;;;13.40;99.90;;;;;;4966067;28;20220;-79
2023/10/22 06:31:23;;;;;;;1.05;0.68;;;13.40;99.90;;;;;;4985006;28;20281;-79
2023/10/22 06:33:50;;;;;;;1.67;0.63;;;13.40;99.90;;;;;;4967725;28;20204;-80
2023/10/22 06:36:19;;;;;;;0.65;0.40;;;13.30;99.90;;;;;;4963743;28;20220;-79
2023/10/22 06:38:48;;;;;;;0.82;0.63;;;13.40;99.90;;;;;;4970119;28;20208;-79
2023/10/22 06:41:16;;;;;;;1.17;0.57;;;13.30;99.90;;;;;;4977393;28;20205;-80
2023/10/22 06:43:45;;;;;;;0.85;0.50;;;13.20;99.90;;;;;;4972417;28;20213;-80
2023/10/22 06:46:13;;;;;;;0.88;0.50;;;13.20;99.90;;;;;;4972695;28;20204;-79
2023/10/22 06:48:42;;;;;;;2.75;0.60;;;13.10;99.90;;;;;;4985350;28;20208;-78
2023/10/22 06:51:11;;;;;;;1.48;0.38;;;13.20;99.90;;;;;;4978362;28;20200;-80
2023/10/22 06:53:39;;;;;;;1.17;0.50;;;13.10;99.90;;;;;;4974301;28;20205;-79
2023/10/22 06:56:11;;;;;;;2.15;0.60;;;13.10;99.90;;;;;;4978509;28;20224;-80
2023/10/22 06:58:39;;;;;;;0.70;0.50;;;13.10;99.90;;;;;;4960460;28;20212;-80
2023/10/22 07:01:09;;;;;;;1.75;0.57;;;13.10;99.90;;;;;;4968489;28;20216;-80
2023/10/22 07:03:38;;;;;;;0.65;0.40;;;13.20;99.90;;;;;;4995013;28;20197;-79
2023/10/22 07:06:06;;;;;;;0.73;0.60;;;13.20;99.90;;;;;;4979583;28;20219;-79
2023/10/22 07:08:34;;;;;;;0.93;0.45;;;13.10;99.90;;;;;;4993172;28;20200;-79
2023/10/22 07:11:01;;;;;;;1.42;0.60;;;13.20;99.90;;;;;;5000729;28;20198;-80
2023/10/22 07:13:30;;;;;;;1.60;0.60;;;13.20;99.90;;;;;;4981091;28;20706;-80
2023/10/22 07:15:57;;;;;;;1.83;0.90;;;13.20;99.90;;;;;;4976350;28;20220;-80
2023/10/22 07:18:24;;;;;;;0.77;0.47;;;13.20;99.90;;;;;;4977376;28;20701;-80
2023/10/22 07:20:52;;;;;;;0.65;0.55;;;13.20;99.90;;;;;;4992221;28;20220;-81
2023/10/22 07:23:21;;;;;;;1.35;0.85;;;13.20;99.90;;;;;;4980766;28;20212;-79
2023/10/22 07:25:48;;;;;;;0.73;0.50;;;13.30;99.90;;;;;;4978733;28;20206;-79
2023/10/22 07:28:16;;;;;;;1.45;0.70;;;13.20;99.90;;;;;;4966955;28;20683;-79
2023/10/22 07:30:47;;;;;;;2.22;0.52;;;13.20;99.90;;;;;;4969485;28;20208;-79
2023/10/22 07:33:16;;;;;;;1.10;0.70;;;13.20;99.90;;;;;;4977331;28;20211;-79
2023/10/22 07:35:53;;;;;;;1.48;0.70;;;13.20;99.90;;;;;;4977513;28;20232;-79
2023/10/22 07:38:22;;;;;;;1.02;0.70;;;13.20;99.90;;;;;;4980110;28;20239;-79
2023/10/22 07:40:50;;;;;;;2.47;0.65;;;13.20;99.90;;;;;;4973601;28;20216;-79
2023/10/22 07:43:19;;;;;;;1.00;0.60;;;13.20;99.90;;;;;;4981372;28;20570;-79
2023/10/22 07:45:47;;;;;;;1.08;0.77;;;13.20;99.90;;;;;;4991932;28;20201;-80
2023/10/22 07:48:14;;;;;;;2.15;0.73;;;13.20;99.90;;;;;;4976220;28;20243;-80
2023/10/22 07:50:42;;;;;;;1.38;0.80;;;13.30;99.90;;;;;;4985486;28;20205;-79
2023/10/22 07:53:09;;;;;;;1.48;0.70;;;13.20;99.90;;;;;;4977096;28;20216;-79
2023/10/22 07:55:39;;;;;;;1.23;0.88;;;13.30;99.90;;;;;;4975913;28;20551;-79
2023/10/22 07:58:06;;;;;;;0.90;0.60;;;13.20;99.90;;;;;;4971849;28;20216;-81
2023/10/22 08:00:34;;;;;;;1.23;0.85;;;13.30;99.90;;;;;;4994623;28;20215;-80
2023/10/22 08:03:02;;;;;;;1.33;1.13;;;13.30;99.90;;;;;;4988582;28;20211;-81
2023/10/22 08:05:31;;;;;;;1.70;0.70;;;13.30;99.90;;;;;;4978271;28;20212;-80
2023/10/22 08:07:58;;;;;;;1.73;0.70;;;13.30;99.90;;;;;;4994355;28;20217;-79
2023/10/22 08:10:26;;;;;;;1.30;0.77;;;13.30;99.90;;;;;;4989371;28;20200;-79
2023/10/22 08:12:54;;;;;;;1.63;0.60;;;13.30;99.90;;;;;;4974739;28;20201;-80
2023/10/22 08:15:22;;;;;;;1.33;0.80;;;13.30;99.90;;;;;;4967418;28;20558;-80
2023/10/22 08:17:50;;;;;;;1.10;0.70;;;13.40;99.90;;;;;;4988602;28;20232;-79
2023/10/22 08:20:18;;;;;;;1.10;0.52;;;13.30;99.90;;;;;;4970987;28;20200;-79
2023/10/22 08:22:45;;;;;;;1.00;0.85;;;13.30;99.90;;;;;;4967908;28;20204;-79
2023/10/22 08:25:12;;;;;;;2.40;0.68;;;13.30;99.90;;;;;;4969475;28;20207;-79
2023/10/22 08:27:40;;;;;;;5.35;1.15;;;13.40;99.90;;;;;;4973469;28;20220;-78
2023/10/22 08:30:10;;;;;;;1.10;0.60;;;13.40;99.90;;;;;;4975208;28;20680;-79
2023/10/22 08:32:43;;;;;;;1.60;0.60;;;13.40;99.90;;;;;;4967598;28;20203;-78
2023/10/22 08:35:13;;;;;;;1.05;0.70;;;13.50;99.90;;;;;;4972643;28;20200;-80
2023/10/22 08:37:51;;;;;;;0.90;0.80;;;13.50;99.90;;;;;;4975057;28;20220;-79
2023/10/22 08:40:22;;;;;;;1.77;0.60;;;13.50;99.90;;;;;;4970131;28;20215;-80
2023/10/22 08:42:54;;;;;;;1.58;0.57;;;13.50;99.90;;;;;;4988348;28;20212;-80
2023/10/22 08:45:23;;;;;;;0.90;0.43;;;13.50;99.90;;;;;;4970334;28;20211;-80
2023/10/22 08:47:50;;;;;;;1.67;0.60;;;13.60;99.90;;;;;;4993717;28;20220;-79
2023/10/22 08:50:18;;;;;;;1.40;0.73;;;13.60;99.90;;;;;;4976406;28;20197;-80
2023/10/22 08:52:46;;;;;;;1.98;0.70;;;13.50;99.90;;;;;;4973470;28;20197;-79
2023/10/22 08:55:13;;;;;;;2.60;0.60;;;13.50;99.90;;;;;;4981258;28;20212;-79
2023/10/22 08:57:42;;;;;;;1.98;0.70;;;13.60;99.90;;;;;;4975026;28;20236;-79
2023/10/22 09:00:13;;;;;;;0.77;0.70;;;13.60;99.90;;;;;;4977634;28;20196;-80
2023/10/22 09:02:44;;;;;;;2.97;0.80;;;13.70;99.90;;;;;;4974201;28;20208;-80
2023/10/22 09:05:11;;;;;;;0.82;0.70;;;13.70;99.90;;;;;;4975069;28;20196;-80
2023/10/22 09:07:53;;;;;;;4.28;0.80;;;13.70;99.90;;;;;;4970017;28;20224;-79
2023/10/22 09:10:29;;;;;;;1.02;0.65;;;13.70;99.90;;;;;;4974436;28;20212;-81
2023/10/22 09:13:14;;;;;;;2.83;0.75;;;13.70;99.90;;;;;;4992726;28;20651;-80
2023/10/22 09:15:42;;;;;;;1.20;0.73;;;13.80;99.90;;;;;;4976158;28;20213;-80
2023/10/22 09:18:13;;;;;;;1.52;0.68;;;13.80;99.90;;;;;;4992042;28;20225;-80
2023/10/22 09:20:44;;;;;;;1.13;0.75;;;13.90;99.90;;;;;;4984111;28;20195;-80
2023/10/22 09:23:17;;;;;;;1.42;0.65;;;13.90;99.90;;;;;;4975858;28;20204;-78
2023/10/22 09:25:48;;;;;;;0.85;0.40;;;13.90;99.90;;;;;;4976458;28;20200;-79
2023/10/22 09:28:20;;;;;;;1.33;0.63;;;14.00;99.90;;;;;;4975292;28;20232;-80
2023/10/22 09:30:48;;;;;;;1.92;0.45;;;14.00;99.90;;;;;;4973185;28;20196;-80
2023/10/22 09:33:19;;;;;;;0.98;0.52;;;14.10;99.90;;;;;;4978469;28;20208;-80
2023/10/22 09:36:02;;;;;;;1.48;0.60;;;14.10;99.90;;;;;;4971107;28;20559;-81
2023/10/22 09:38:43;;;;;;;1.98;0.90;;;14.10;99.90;;;;;;4991839;28;20230;-80
2023/10/22 09:41:13;;;;;;;1.42;0.80;;;14.10;99.90;;;;;;4992901;28;20750;-81
2023/10/22 09:43:41;;;;;;;1.98;0.80;;;14.00;99.90;;;;;;4996198;28;20200;-81
2023/10/22 09:46:09;;;;;;;3.22;0.68;;;14.10;99.90;;;;;;4976681;28;20200;-81
2023/10/22 09:48:51;;;;;;;1.83;0.60;;;13.90;99.90;;;;;;4977081;28;20200;-81
2023/10/22 09:51:18;;;;;;;1.63;0.75;;;14.00;99.90;;;;;;4978448;28;20196;-81
2023/10/22 09:53:52;;;;;;;1.35;0.88;;;14.00;99.90;;;;;;4977575;28;20196;-81
2023/10/22 09:56:21;;;;;;;3.17;0.90;;;14.10;99.90;;;;;;4987228;28;20199;-81
2023/10/22 09:58:50;;;;;;;1.45;0.77;;;14.10;99.90;;;;;;4975169;28;20223;-81
2023/10/22 10:01:17;;;;;;;2.65;0.75;;;14.20;99.90;;;;;;4993486;28;20208;-81
2023/10/22 10:03:45;;;;;;;2.08;0.50;;;14.10;99.90;;;;;;4993955;28;20219;-81
2023/10/22 10:06:14;;;;;;;0.57;0.50;;;14.10;99.90;;;;;;4978059;28;20211;-81
2023/10/22 10:08:42;;;;;;;0.68;0.40;;;14.10;99.90;;;;;;4984296;28;20197;-81
2023/10/22 10:11:12;;;;;;;0.73;0.50;;;14.10;99.90;;;;;;4974880;28;20235;-82
2023/10/22 10:13:41;;;;;;;3.67;0.60;;;14.10;99.90;;;;;;4994140;28;20212;-82
2023/10/22 10:16:16;;;;;;;1.55;0.50;;;14.10;99.90;;;;;;4971808;28;20205;-81
2023/10/22 10:19:03;;;;;;;1.83;0.50;;;14.10;99.90;;;;;;4985820;28;20223;-81
2023/10/22 10:21:40;;;;;;;1.45;0.50;;;14.20;99.90;;;;;;4973909;28;20211;-81
2023/10/22 10:24:18;;;;;;;1.38;0.40;;;14.30;99.90;;;;;;4978053;28;20203;-82
2023/10/22 10:26:46;;;;;;;1.52;0.60;;;14.30;99.90;;;;;;4986627;28;20239;-82
2023/10/22 10:29:15;;;;;;;1.35;0.40;;;14.30;99.90;;;;;;4978689;28;20212;-83
2023/10/22 10:31:45;;;;;;;1.20;0.50;;;14.30;99.90;;;;;;4978874;28;20201;-82
2023/10/22 10:34:22;;;;;;;1.05;0.60;;;14.30;99.90;;;;;;4995491;28;20201;-82
2023/10/22 10:37:22;;;;;;;1.48;0.75;;;14.20;99.90;;;;;;4988617;28;20215;-79
2023/10/22 10:39:52;;;;;;;1.38;0.52;;;14.10;99.90;;;;;;4934402;29;20198;-80
2023/10/22 10:42:50;;;;;;;2.00;0.60;;;14.20;99.90;;;;;;4981120;28;20201;-80
2023/10/22 10:45:18;;;;;;;2.35;0.70;;;14.10;99.90;;;;;;4992683;28;20729;-80
2023/10/22 10:47:46;;;;;;;0.93;0.50;;;14.20;99.90;;;;;;4975880;28;20612;-81
2023/10/22 10:50:19;;;;;;;2.47;0.80;;;14.30;99.90;;;;;;4978388;28;20208;-81
2023/10/22 10:53:02;;;;;;;0.98;0.60;;;14.40;99.90;;;;;;4989123;28;20220;-80
2023/10/22 10:55:33;;;;;;;0.60;0.40;;;14.50;99.90;;;;;;4978651;28;20200;-80
2023/10/22 10:58:01;;;;;;;1.65;0.70;;;14.40;99.90;;;;;;4975208;28;20208;-81
2023/10/22 11:00:35;;;;;;;1.73;0.70;;;14.40;99.90;;;;;;4980265;28;20698;-80
2023/10/22 11:03:10;;;;;;;0.98;0.50;;;14.60;99.90;;;;;;4990953;28;20219;-80
2023/10/22 11:05:39;;;;;;;3.38;1.00;;;14.50;99.90;;;;;;4996888;28;20199;-79
2023/10/22 11:08:12;;;;;;;1.40;0.80;;;14.50;99.90;;;;;;4980054;28;20208;-81
2023/10/22 11:10:40;;;;;;;1.65;0.60;;;14.50;99.90;;;;;;4990492;28;20208;-80
2023/10/22 11:13:09;;;;;;;1.08;0.47;;;14.50;99.90;;;;;;5000213;28;20212;-80
2023/10/22 11:15:40;;;;;;;2.33;0.98;;;14.50;99.90;;;;;;4987673;28;20204;-80
2023/10/22 11:18:09;;;;;;;2.15;1.25;;;14.40;99.90;;;;;;4997076;28;20227;-81
2023/10/22 11:20:38;;;;;;;0.82;0.77;;;14.40;99.90;;;;;;4993284;28;20215;-80
2023/10/22 11:23:16;;;;;;;1.27;0.73;;;14.40;99.90;;;;;;4978658;28;20213;-80
2023/10/22 11:25:44;;;;;;;1.13;0.60;;;14.50;99.90;;;;;;4991526;28;20203;-80
2023/10/22 11:28:12;;;;;;;1.20;0.65;;;14.50;99.90;;;;;;4974984;28;20228;-80
2023/10/22 11:30:41;;;;;;;2.00;1.00;;;14.40;99.90;;;;;;4991359;28;20206;-80
2023/10/22 11:33:11;;;;;;;2.85;0.80;;;14.50;99.90;;;;;;4977999;28;20196;-81
2023/10/22 11:35:39;;;;;;;0.88;0.52;;;14.50;99.90;;;;;;4983907;28;20679;-80
2023/10/22 11:38:08;;;;;;;1.20;0.80;;;14.50;99.90;;;;;;4978033;28;20231;-80
2023/10/22 11:40:38;;;;;;;1.05;0.50;;;14.50;99.90;;;;;;4989191;28;20209;-80
2023/10/22 11:43:14;;;;;;;1.35;0.57;;;14.60;99.90;;;;;;4970386;28;20209;-81
2023/10/22 11:45:50;;;;;;;1.55;0.70;;;14.60;99.90;;;;;;4990517;28;20209;-80
2023/10/22 11:48:18;;;;;;;2.85;0.70;;;14.60;99.90;;;;;;4970895;28;20231;-82
2023/10/22 11:50:47;;;;;;;2.30;0.70;;;14.60;99.90;;;;;;4995357;28;20204;-81
2023/10/22 11:53:16;;;;;;;1.95;0.90;;;14.50;99.90;;;;;;4979647;28;20205;-83
2023/10/22 11:55:45;;;;;;;0.98;0.70;;;14.50;99.90;;;;;;4971034;28;20201;-81
2023/10/22 11:58:19;;;;;;;1.17;0.73;;;14.60;99.90;;;;;;4981412;28;20232;-81
2023/10/22 12:00:47;;;;;;;1.45;1.00;;;14.60;99.90;;;;;;4991637;28;20207;-81
2023/10/22 12:03:15;;;;;;;0.77;0.60;;;14.70;99.90;;;;;;4972463;28;20200;-81
2023/10/22 12:05:43;;;;;;;1.20;0.80;;;14.80;99.90;;;;;;4970000;28;20678;-80
2023/10/22 12:08:10;;;;;;;1.65;0.80;;;14.80;99.90;;;;;;4987223;28;20212;-80
2023/10/22 12:10:39;;;;;;;1.30;0.70;;;14.90;99.90;;;;;;4981698;28;20201;-81
2023/10/22 12:13:07;;;;;;;2.33;0.80;;;14.80;99.90;;;;;;4973845;28;20201;-81
2023/10/22 12:15:34;;;;;;;1.25;1.00;;;15.10;99.90;;;;;;4974437;28;20689;-81
2023/10/22 12:18:02;;;;;;;1.52;0.70;;;15.10;99.90;;;;;;4978311;28;20224;-81
2023/10/22 12:20:30;;;;;;;2.08;0.60;;;15.20;99.90;;;;;;4977397;28;20199;-80
2023/10/22 12:22:57;;;;;;;1.88;0.63;;;15.30;99.90;;;;;;4970346;28;20208;-79
2023/10/22 12:25:26;;;;;;;1.60;0.90;;;15.40;99.90;;;;;;4973123;28;20204;-80
2023/10/22 12:27:55;;;;;;;2.30;0.70;;;15.60;99.90;;;;;;4983808;28;20221;-80
2023/10/22 12:30:22;;;;;;;1.00;0.70;;;15.50;99.90;;;;;;4975054;28;20196;-80
2023/10/22 12:32:56;;;;;;;1.65;0.80;;;15.40;99.90;;;;;;4971935;28;20215;-80
2023/10/22 12:35:23;;;;;;;1.80;0.60;;;15.70;99.90;;;;;;4979230;28;20197;-80
2023/10/22 12:37:51;;;;;;;0.90;0.50;;;15.70;99.90;;;;;;4980218;28;20227;-80
2023/10/22 12:40:18;;;;;;;1.55;0.68;;;15.90;99.90;;;;;;4971142;28;20204;-80
2023/10/22 12:42:45;;;;;;;2.10;0.60;;;16.30;99.90;;;;;;4971911;28;20208;-80
2023/10/22 12:45:14;;;;;;;2.80;0.70;;;16.60;99.90;;;;;;4966425;28;20556;-81
2023/10/22 12:47:49;;;;;;;1.02;0.50;;;16.50;99.90;;;;;;4970425;28;20219;-80
2023/10/22 12:50:17;;;;;;;1.83;0.73;;;16.60;99.90;;;;;;4961121;28;20208;-80
2023/10/22 12:52:45;;;;;;;2.40;0.80;;;16.50;99.90;;;;;;4976782;28;20697;-80
2023/10/22 12:55:43;;;;;;;2.15;0.90;;;16.80;99.90;;;;;;4972733;28;20197;-80
2023/10/22 12:58:22;;;;;;;1.20;0.70;;;17.10;99.90;;;;;;4982300;28;20225;-80